createdAt,value
2018-04-20T00:04:00.085Z,27.03
2018-04-20T00:08:02.620Z,25.23
2018-04-20T00:12:05.911Z,30.77
2018-04-20T00:16:08.436Z,34.67
2018-04-20T00:20:10.970Z,35.77
2018-04-20T00:24:13.488Z,28.47
2018-04-20T00:28:16.788Z,30.17
2018-04-20T00:32:20.089Z,30.53
2018-04-20T00:36:23.395Z,30.00
2018-04-20T00:40:26.692Z,28.40
2018-04-20T00:44:29.976Z,30.27
2018-04-20T00:48:32.512Z,34.17
2018-04-20T00:52:35.039Z,26.13
2018-04-20T00:56:37.568Z,25.47
2018-04-20T01:00:40.117Z,24.53
2018-04-20T01:04:43.425Z,24.50
2018-04-20T01:08:45.968Z,25.33
2018-04-20T01:12:48.503Z,25.47
2018-04-20T01:16:51.804Z,29.37
2018-04-20T01:20:54.331Z,30.90
2018-04-20T01:24:56.868Z,29.07
2018-04-20T01:29:00.138Z,31.57
2018-04-20T01:33:02.674Z,27.83
2018-04-20T01:37:05.203Z,27.23
2018-04-20T01:41:07.738Z,26.60
2018-04-20T01:45:11.032Z,25.33
2018-04-20T01:49:14.311Z,30.77
2018-04-20T01:53:16.844Z,24.97
2018-04-20T01:57:19.375Z,31.63
2018-04-20T02:01:21.906Z,22.87
2018-04-20T02:05:24.443Z,24.50
2018-04-20T02:09:26.955Z,29.70
2018-04-20T02:13:30.251Z,25.40
2018-04-20T02:17:32.788Z,24.27
2018-04-20T02:21:35.320Z,22.83
2018-04-20T02:25:37.859Z,27.10
2018-04-20T02:29:40.371Z,25.40
2018-04-20T02:33:42.908Z,27.23
2018-04-20T02:37:45.453Z,22.47
2018-04-20T02:41:47.987Z,24.73
2018-04-20T02:45:50.524Z,29.53
2018-04-20T02:49:53.057Z,32.53
2018-04-20T02:53:55.592Z,28.83
2018-04-20T02:57:58.115Z,27.80
2018-04-20T03:02:01.350Z,30.67
2018-04-20T03:06:03.893Z,33.23
2018-04-20T03:10:06.407Z,31.40
2018-04-20T03:14:08.967Z,22.63
2018-04-20T03:18:11.507Z,25.03
2018-04-20T03:22:14.035Z,27.40
2018-04-20T03:26:16.568Z,27.53
2018-04-20T03:30:19.088Z,28.07
2018-04-20T03:34:22.388Z,31.57
2018-04-20T03:38:25.697Z,30.57
2018-04-20T03:42:28.992Z,29.43
2018-04-20T03:46:32.292Z,35.60
2018-04-20T03:50:35.600Z,39.23
2018-04-20T03:54:38.882Z,39.53
2018-04-20T03:58:41.419Z,26.10
2018-04-20T04:02:43.963Z,30.47
2018-04-20T04:06:46.499Z,37.27
2018-04-20T04:10:49.067Z,37.90
2018-04-20T04:14:51.576Z,35.20
2018-04-20T04:19:06.083Z,29.53
2018-04-20T04:23:22.114Z,31.70
2018-04-20T04:27:39.219Z,30.23
2018-04-20T04:31:42.515Z,36.83
2018-04-20T04:35:45.811Z,32.83
2018-04-20T04:39:49.143Z,33.70
2018-04-20T04:43:51.699Z,28.60
2018-04-20T04:47:54.258Z,27.30
2018-04-20T04:51:56.808Z,28.00
2018-04-20T04:55:59.333Z,34.50
2018-04-20T05:00:02.289Z,27.67
2018-04-20T05:04:05.593Z,26.73
2018-04-20T05:08:08.133Z,31.57
2018-04-20T05:12:10.672Z,29.43
2018-04-20T05:16:13.186Z,40.80
2018-04-20T05:20:15.723Z,45.43
2018-04-20T05:24:18.255Z,49.50
2018-04-20T05:28:20.827Z,41.03
2018-04-20T05:32:23.359Z,37.70
2018-04-20T05:36:26.640Z,33.07
2018-04-20T05:40:29.180Z,36.67
2018-04-20T05:44:31.764Z,40.97
2018-04-20T05:48:34.299Z,34.97
2018-04-20T05:52:36.828Z,32.80
2018-04-20T05:56:39.343Z,36.07
2018-04-20T06:00:41.881Z,26.07
2018-04-20T06:04:45.189Z,25.70
2018-04-20T06:08:47.730Z,23.70
2018-04-20T06:12:50.264Z,29.00
2018-04-20T06:16:52.777Z,26.87
2018-04-20T06:20:55.307Z,25.27
2018-04-20T06:24:58.635Z,24.07
2018-04-20T06:29:01.173Z,24.90
2018-04-20T06:33:03.720Z,24.33
2018-04-20T06:37:06.241Z,21.63
2018-04-20T06:41:08.779Z,22.67
2018-04-20T06:45:11.314Z,17.53
2018-04-20T06:49:13.852Z,19.80
2018-04-20T06:53:16.408Z,19.63
2018-04-20T06:57:19.688Z,18.93
2018-04-20T07:01:22.224Z,15.90
2018-04-20T07:05:24.759Z,20.50
2018-04-20T07:09:27.297Z,14.30
2018-04-20T07:13:29.840Z,13.17
2018-04-20T07:17:33.133Z,17.43
2018-04-20T07:21:35.680Z,16.43
2018-04-20T07:25:38.220Z,12.70
2018-04-20T07:29:41.529Z,17.67
2018-04-20T07:33:44.831Z,13.23
2018-04-20T07:37:48.137Z,13.70
2018-04-20T07:41:50.667Z,13.70
2018-04-20T07:45:53.719Z,13.47
2018-04-20T07:49:57.025Z,11.13
2018-04-20T07:54:00.327Z,11.60
2018-04-20T07:58:03.623Z,12.30
2018-04-20T08:02:06.895Z,9.47
2018-04-20T08:06:09.428Z,13.80
2018-04-20T08:10:11.951Z,14.47
2018-04-20T08:14:14.471Z,9.77
2018-04-20T08:18:17.773Z,9.03
2018-04-20T08:22:21.052Z,7.17
2018-04-20T08:26:23.585Z,14.13
2018-04-20T08:30:26.113Z,8.73
2018-04-20T08:34:28.651Z,11.00
2018-04-20T08:38:31.184Z,9.83
2018-04-20T08:42:33.699Z,11.67
2018-04-20T08:46:37.013Z,11.03
2018-04-20T08:50:40.303Z,11.63
2018-04-20T08:54:43.603Z,11.17
2018-04-20T08:58:46.128Z,9.17
2018-04-20T09:02:48.647Z,13.10
2018-04-20T09:06:51.176Z,7.73
2018-04-20T09:10:54.480Z,12.10
2018-04-20T09:14:57.012Z,13.80
2018-04-20T09:18:59.548Z,15.07
2018-04-20T09:23:02.065Z,13.13
2018-04-20T09:27:04.600Z,17.17
2018-04-20T09:31:07.897Z,16.77
2018-04-20T09:35:11.200Z,14.10
2018-04-20T09:39:13.727Z,13.10
2018-04-20T09:43:16.244Z,19.87
2018-04-20T09:47:18.779Z,15.57
2018-04-20T09:51:21.339Z,16.00
2018-04-20T09:55:23.865Z,19.10
2018-04-20T09:59:26.403Z,20.33
2018-04-20T10:03:29.737Z,16.93
2018-04-20T10:07:32.259Z,17.13
2018-04-20T10:11:34.795Z,23.97
2018-04-20T10:15:38.105Z,21.90
2018-04-20T10:19:41.409Z,22.53
2018-04-20T10:23:44.716Z,31.60
2018-04-20T10:27:47.245Z,24.33
2018-04-20T10:31:49.787Z,27.17
2018-04-20T10:35:52.331Z,23.90
2018-04-20T10:39:54.869Z,22.40
2018-04-20T10:43:57.424Z,21.50
2018-04-20T10:48:00.100Z,21.60
2018-04-20T10:52:02.631Z,21.20
2018-04-20T10:56:05.171Z,22.43
2018-04-20T11:00:07.708Z,17.30
2018-04-20T11:04:11.087Z,19.80
2018-04-20T11:08:13.617Z,18.33
2018-04-20T11:12:16.151Z,18.37
2018-04-20T11:16:19.449Z,20.60
2018-04-20T11:20:22.744Z,14.40
2018-04-20T11:24:26.047Z,13.73
2018-04-20T11:28:29.464Z,14.90
2018-04-20T11:32:32.763Z,15.00
2018-04-20T11:36:36.055Z,17.07
2018-04-20T11:40:39.356Z,14.23
2018-04-20T11:44:42.652Z,13.87
2018-04-20T11:48:45.167Z,13.27
2018-04-20T11:52:47.715Z,13.97
2018-04-20T11:56:50.244Z,14.10
2018-04-20T12:00:52.780Z,13.07
2018-04-20T12:04:55.308Z,14.37
2018-04-20T12:08:57.907Z,14.47
2018-04-20T12:13:00.435Z,16.57
2018-04-20T12:17:02.977Z,11.27
2018-04-20T12:21:05.539Z,9.20
2018-04-20T12:25:08.076Z,11.00
2018-04-20T12:29:10.583Z,14.07
2018-04-20T12:33:13.111Z,15.90
2018-04-20T12:37:15.637Z,12.30
2018-04-20T12:41:18.193Z,15.73
2018-04-20T12:45:20.716Z,10.30
2018-04-20T12:49:23.237Z,16.37
2018-04-20T12:53:25.908Z,15.77
2018-04-20T12:57:29.237Z,15.83
2018-04-20T13:01:31.794Z,15.93
2018-04-20T13:05:35.099Z,14.53
2018-04-20T13:09:38.379Z,15.37
2018-04-20T13:13:40.912Z,14.00
2018-04-20T13:17:43.447Z,15.13
2018-04-20T13:21:45.991Z,21.37
2018-04-20T13:25:48.520Z,14.80
2018-04-20T13:29:51.058Z,11.67
2018-04-20T13:33:53.603Z,14.27
2018-04-20T13:37:56.140Z,22.03
2018-04-20T13:41:58.727Z,13.43
2018-04-20T13:46:01.262Z,13.63
2018-04-20T13:50:04.577Z,14.47
2018-04-20T13:54:07.137Z,19.10
2018-04-20T13:58:09.680Z,15.67
2018-04-20T14:02:12.243Z,18.07
2018-04-20T14:06:14.783Z,14.77
2018-04-20T14:10:17.331Z,10.27
2018-04-20T14:14:19.874Z,16.83
2018-04-20T14:18:23.166Z,11.97
2018-04-20T14:22:25.692Z,14.63
2018-04-20T14:26:28.236Z,16.40
2018-04-20T14:30:30.768Z,12.80
2018-04-20T14:34:33.322Z,12.10
2018-04-20T14:38:35.839Z,13.93
2018-04-20T14:42:38.364Z,13.27
2018-04-20T14:46:40.901Z,10.20
2018-04-20T14:50:43.432Z,11.83
2018-04-20T14:54:45.943Z,14.73
2018-04-20T14:58:49.244Z,17.23
2018-04-20T15:02:52.544Z,11.87
2018-04-20T15:06:55.855Z,12.87
2018-04-20T15:10:59.155Z,13.97
2018-04-20T15:15:02.435Z,11.70
2018-04-20T15:19:04.993Z,11.83
2018-04-20T15:23:07.507Z,10.60
2018-04-20T15:27:10.031Z,16.43
2018-04-20T15:31:12.568Z,14.77
2018-04-20T15:35:15.075Z,16.47
2018-04-20T15:39:18.376Z,12.60
2018-04-20T15:43:21.683Z,12.50
2018-04-20T15:47:24.975Z,13.30
2018-04-20T15:51:27.508Z,11.17
2018-04-20T15:55:30.051Z,13.60
2018-04-20T15:59:33.329Z,14.60
2018-04-20T16:03:35.859Z,14.35
2018-04-20T16:07:38.400Z,14.60
2018-04-20T16:11:40.935Z,14.85
2018-04-20T16:15:43.495Z,13.30
2018-04-20T16:19:46.000Z,13.30
2018-04-20T16:23:48.532Z,13.55
2018-04-20T16:27:51.060Z,11.02
2018-04-20T16:31:54.360Z,10.90
2018-04-20T16:35:58.079Z,16.92
2018-04-20T16:40:01.371Z,13.87
2018-04-20T16:44:04.672Z,11.30
2018-04-20T16:48:07.966Z,12.75
2018-04-20T16:52:10.501Z,12.33
2018-04-20T16:56:13.033Z,13.77
2018-04-20T17:00:15.547Z,12.33
2018-04-20T17:04:18.089Z,12.27
2018-04-20T17:08:20.627Z,15.83
2018-04-20T17:12:23.156Z,13.40
2018-04-20T17:16:25.682Z,10.63
2018-04-20T17:20:28.187Z,13.13
2018-04-20T17:24:30.722Z,11.47
2018-04-20T17:28:33.259Z,11.00
2018-04-20T17:32:35.793Z,16.43
2018-04-20T17:36:38.323Z,13.67
2018-04-20T17:40:40.832Z,10.77
2018-04-20T17:44:43.372Z,13.37
2018-04-20T17:48:46.676Z,10.97
2018-04-20T17:52:49.963Z,17.57
2018-04-20T17:56:52.487Z,14.67
2018-04-20T18:00:55.003Z,11.50
2018-04-20T18:04:57.539Z,12.67
2018-04-20T18:09:00.063Z,15.37
2018-04-20T18:13:02.603Z,18.07
2018-04-20T18:17:05.126Z,16.00
2018-04-20T18:21:07.643Z,25.97
2018-04-20T18:25:10.177Z,22.20
2018-04-20T18:29:12.720Z,20.70
2018-04-20T18:33:15.252Z,21.63
2018-04-20T18:37:17.789Z,24.03
2018-04-20T18:41:21.096Z,30.60
2018-04-20T18:45:24.368Z,30.00
2018-04-20T18:49:26.897Z,19.03
2018-04-20T18:53:29.435Z,18.47
2018-04-20T18:57:31.984Z,12.97
2018-04-20T19:01:34.523Z,15.47
2018-04-20T19:05:37.046Z,15.33
2018-04-20T19:09:39.584Z,21.03
2018-04-20T19:13:42.121Z,15.83
2018-04-20T19:17:44.651Z,12.80
2018-04-20T19:21:47.183Z,13.10
2018-04-20T19:25:49.700Z,9.80
2018-04-20T19:29:52.233Z,9.73
2018-04-20T19:33:55.529Z,13.03
2018-04-20T19:37:58.069Z,12.10
2018-04-20T19:42:00.641Z,18.20
2018-04-20T19:46:03.156Z,14.07
2018-04-20T19:50:05.687Z,17.07
2018-04-20T19:54:08.988Z,17.03
2018-04-20T19:58:12.295Z,11.70
2018-04-20T20:02:14.836Z,14.00
2018-04-20T20:06:17.364Z,18.63
2018-04-20T20:10:19.898Z,16.40
2018-04-20T20:14:22.438Z,15.47
2018-04-20T20:18:24.971Z,15.60
2018-04-20T20:22:27.508Z,18.47
2018-04-20T20:26:30.035Z,18.87
2018-04-20T20:30:32.596Z,24.57
2018-04-20T20:34:35.135Z,32.73
2018-04-20T20:38:37.683Z,28.73
2018-04-20T20:42:40.287Z,28.70
2018-04-20T20:46:42.807Z,31.73
2018-04-20T20:50:46.111Z,32.57
2018-04-20T20:54:48.667Z,30.10
2018-04-20T20:58:51.202Z,32.07
2018-04-20T21:02:53.743Z,32.13
2018-04-20T21:06:56.288Z,32.77
2018-04-20T21:10:58.839Z,28.90
2018-04-20T21:15:02.243Z,30.97
2018-04-20T21:19:05.546Z,33.03
2018-04-20T21:23:08.847Z,25.30
2018-04-20T21:27:12.152Z,30.73
2018-04-20T21:31:14.716Z,27.37
2018-04-20T21:35:17.392Z,25.70
2018-04-20T21:39:19.928Z,23.67
2018-04-20T21:43:22.465Z,27.77
2018-04-20T21:47:24.999Z,22.57
2018-04-20T21:51:27.523Z,27.40
2018-04-20T21:55:30.071Z,27.23
2018-04-20T21:59:32.616Z,27.70
2018-04-20T22:03:35.915Z,29.57
2018-04-20T22:07:38.448Z,30.77
2018-04-20T22:11:40.959Z,32.57
2018-04-20T22:15:43.581Z,30.17
2018-04-20T22:19:46.171Z,29.07
2018-04-20T22:23:48.712Z,28.90
2018-04-20T22:27:51.248Z,28.03
2018-04-20T22:31:53.770Z,26.90
2018-04-20T22:35:56.322Z,29.57
2018-04-20T22:39:58.881Z,31.00
2018-04-20T22:44:01.460Z,34.23
2018-04-20T22:48:04.967Z,32.23
2018-04-20T22:52:07.491Z,36.73
2018-04-20T22:56:10.028Z,34.87
2018-04-20T23:00:12.563Z,37.30
2018-04-20T23:04:15.104Z,37.40
2018-04-20T23:08:17.725Z,34.83
2018-04-20T23:12:20.255Z,35.83
2018-04-20T23:16:22.811Z,30.93
2018-04-20T23:20:25.351Z,32.20
2018-04-20T23:24:28.277Z,43.10
2018-04-20T23:28:30.811Z,41.87
2018-04-20T23:32:33.359Z,37.47
2018-04-20T23:36:35.923Z,40.73
2018-04-20T23:40:39.296Z,37.67
2018-04-20T23:44:41.831Z,40.60
2018-04-20T23:48:44.366Z,36.70
2018-04-20T23:52:46.888Z,37.77
2018-04-20T23:56:49.437Z,41.00
